Time;durP1;ratioP1;P1;durP2;ratioP2;P2;SDS_P1;SDS_P2;PMS_P1;PMS_P2;Temp;Humidity;BMP_temperature;BMP_pressure;BME280_temperature;BME280_humidity;BME280_pressure;Samples;Min_cycle;Max_cycle;Signal;HPM_P1;HPM_P2
2022/07/12 00:01:55;;;;;;;;;;;20.30;67.20;;;19.70;62.30;96492.50;4237255;33;19933;-85
2022/07/12 00:04:23;;;;;;;;;;;20.30;67.20;;;19.70;62.35;96493.34;4214787;33;20063;-85
2022/07/12 00:06:52;;;;;;;;;;;20.40;67.20;;;19.69;62.28;96494.47;4238079;33;19982;-85
2022/07/12 00:09:21;;;;;;;;;;;20.30;67.30;;;19.69;62.39;96494.47;4214711;33;19902;-85
2022/07/12 00:11:49;;;;;;;;;;;20.30;67.30;;;19.69;62.15;96490.88;4237581;33;19909;-85
2022/07/12 00:14:18;;;;;;;;;;;20.30;67.00;;;19.69;62.40;96493.66;4238304;33;20123;-85
2022/07/12 00:16:47;;;;;;;;;;;20.30;67.20;;;19.68;62.24;96492.84;4262846;33;19902;-85
2022/07/12 00:19:17;;;;;;;;;;;20.30;67.20;;;19.68;62.74;96492.03;4238139;33;20029;-85
2022/07/12 00:21:46;;;;;;;;;;;20.30;67.20;;;19.68;62.25;96489.25;4237732;33;20506;-85
2022/07/12 00:24:14;;;;;;;;;;;20.30;67.20;;;19.67;62.72;96488.44;4238063;33;19902;-84
2022/07/12 00:26:43;;;;;;;;;;;20.30;67.30;;;19.67;62.48;96487.63;4238044;33;20106;-85
2022/07/12 00:29:12;;;;;;;;;;;20.30;67.30;;;19.66;62.26;96486.00;4233170;33;19925;-85
2022/07/12 00:31:41;;;;;;;;;;;20.30;67.30;;;19.67;62.14;96487.63;4186074;33;20158;-85
2022/07/12 00:34:09;;;;;;;;;;;20.30;67.20;;;19.65;62.43;96489.91;4209724;33;20153;-85
2022/07/12 00:36:39;;;;;;;;;;;20.30;67.20;;;19.65;62.40;96484.34;4209732;33;19910;-84
2022/07/12 00:39:08;;;;;;;;;;;20.30;67.00;;;19.65;62.69;96484.34;4186502;33;20046;-85
2022/07/12 00:41:36;;;;;;;;;;;20.30;67.30;;;19.63;62.35;96487.44;4209433;33;20115;-85
2022/07/12 00:44:05;;;;;;;;;;;20.30;67.30;;;19.62;62.45;96486.63;4209921;33;20109;-85
2022/07/12 00:46:34;;;;;;;;;;;20.30;67.20;;;19.62;62.27;96481.06;4209741;33;19917;-85
2022/07/12 00:49:03;;;;;;;;;;;20.30;67.50;;;19.62;62.56;96483.84;4209796;33;19902;-84
2022/07/12 00:51:31;;;;;;;;;;;20.30;67.40;;;19.61;62.52;96487.75;4233563;33;20224;-85
2022/07/12 00:54:02;;;;;;;;;;;20.30;67.30;;;19.61;62.29;96489.72;4186520;33;19903;-84
2022/07/12 00:56:31;;;;;;;;;;;20.30;67.30;;;19.59;61.96;96486.47;4209249;33;19903;-84
2022/07/12 00:59:00;;;;;;;;;;;20.30;67.10;;;19.59;61.95;96487.25;4186273;33;20085;-85
2022/07/12 01:01:29;;;;;;;;;;;20.20;67.00;;;19.58;62.60;96480.06;4233622;33;20058;-84
2022/07/12 01:03:57;;;;;;;;;;;20.20;67.20;;;19.58;62.67;96487.59;4209434;33;20109;-84
2022/07/12 01:06:26;;;;;;;;;;;20.20;67.40;;;19.57;62.26;96488.72;4209563;33;19902;-83
2022/07/12 01:08:55;;;;;;;;;;;20.20;67.20;;;19.56;62.44;96493.44;4233821;33;19909;-84
2022/07/12 01:11:25;;;;;;;;;;;20.20;67.20;;;19.56;62.47;96481.53;4233379;33;19903;-84
2022/07/12 01:13:54;;;;;;;;;;;20.20;67.30;;;19.56;62.41;96489.88;4185326;33;19909;-84
2022/07/12 01:16:23;;;;;;;;;;;20.20;67.10;;;19.55;61.95;96488.22;4233746;33;20004;-84
2022/07/12 01:18:52;;;;;;;;;;;20.20;67.20;;;19.53;62.30;96480.22;4186151;33;20221;-83
2022/07/12 01:21:21;;;;;;;;;;;20.20;67.20;;;19.55;62.36;96485.47;4233592;33;20132;-84
2022/07/12 01:23:51;;;;;;;;;;;20.20;67.30;;;19.52;62.17;96483.31;4208991;33;20121;-85
2022/07/12 01:26:20;;;;;;;;;;;20.20;67.30;;;19.52;62.21;96483.31;4233854;33;20012;-85
2022/07/12 01:28:48;;;;;;;;;;;20.20;67.20;;;19.53;62.63;96483.00;4209265;33;20225;-84
2022/07/12 01:31:17;;;;;;;;;;;20.10;67.20;;;19.51;62.64;96476.97;4209321;33;20101;-85
2022/07/12 01:33:46;;;;;;;;;;;20.10;67.20;;;19.50;62.33;96482.81;4209008;33;19986;-84
2022/07/12 01:36:14;;;;;;;;;;;20.20;67.20;;;19.49;62.36;96475.66;4209261;33;20017;-85
2022/07/12 01:38:43;;;;;;;;;;;20.10;67.30;;;19.49;62.40;96481.22;4185638;33;20072;-84
2022/07/12 01:41:13;;;;;;;;;;;20.10;67.00;;;19.48;62.51;96474.81;4186091;33;20085;-84
2022/07/12 01:43:42;;;;;;;;;;;20.10;67.20;;;19.48;62.39;96480.38;4185446;33;19903;-84
2022/07/12 01:46:11;;;;;;;;;;;20.10;67.20;;;19.45;62.24;96475.44;4208775;33;19903;-85
2022/07/12 01:48:39;;;;;;;;;;;20.10;67.10;;;19.46;62.55;96475.16;4185922;33;19974;-84
2022/07/12 01:51:08;;;;;;;;;;;20.10;67.20;;;19.45;62.54;96470.75;4209130;33;20244;-84
2022/07/12 01:53:37;;;;;;;;;;;20.10;67.20;;;19.45;62.24;96475.44;4232892;33;20236;-84
2022/07/12 01:56:07;;;;;;;;;;;20.10;67.00;;;19.44;62.56;96477.44;4185995;33;20102;-84
2022/07/12 01:58:37;;;;;;;;;;;20.10;67.20;;;19.43;62.03;96466.63;4233571;33;19909;-84
2022/07/12 02:01:06;;;;;;;;;;;20.10;67.10;;;19.43;62.31;96461.06;4185728;33;19902;-84
2022/07/12 02:03:36;;;;;;;;;;;20.10;67.10;;;19.42;62.57;96463.03;4208490;33;20283;-84
2022/07/12 02:06:06;;;;;;;;;;;20.10;67.00;;;19.42;62.40;96465.00;4208741;33;19902;-84
2022/07/12 02:08:34;;;;;;;;;;;20.10;67.20;;;19.41;62.20;96457.81;4185842;33;20092;-84
2022/07/12 02:11:03;;;;;;;;;;;20.10;67.20;;;19.40;62.27;96462.53;4185727;33;19903;-84
2022/07/12 02:13:32;;;;;;;;;;;20.10;67.10;;;19.39;62.54;96458.13;4208258;33;19902;-84
2022/07/12 02:16:02;;;;;;;;;;;20.10;67.20;;;19.39;61.84;96463.69;4208685;33;19903;-84
2022/07/12 02:18:33;;;;;;;;;;;20.10;66.90;;;19.39;62.35;96462.88;4208696;33;19902;-84
2022/07/12 02:21:02;;;;;;;;;;;20.00;67.00;;;19.38;62.37;96464.00;4232914;33;19926;-84
2022/07/12 02:23:30;;;;;;;;;;;20.10;67.00;;;19.37;61.97;96462.38;4207059;33;19903;-84
2022/07/12 02:25:59;;;;;;;;;;;20.00;66.80;;;19.37;62.19;96468.72;4233692;33;19909;-84
2022/07/12 02:28:28;;;;;;;;;;;20.00;67.10;;;19.36;62.62;96471.84;4235563;33;19954;-84
2022/07/12 02:30:57;;;;;;;;;;;20.00;67.20;;;19.34;62.40;96469.41;4187897;33;19968;-84
2022/07/12 02:33:27;;;;;;;;;;;20.00;67.10;;;19.35;62.48;96470.19;4210420;33;19909;-85
2022/07/12 02:35:56;;;;;;;;;;;20.00;67.20;;;19.34;62.33;96469.41;4187633;33;20251;-84
2022/07/12 02:38:24;;;;;;;;;;;20.00;66.90;;;19.34;62.32;96480.50;4210951;33;19902;-85
2022/07/12 02:40:56;;;;;;;;;;;20.00;67.20;;;19.34;62.30;96472.16;4235295;33;19902;-84
2022/07/12 02:43:26;;;;;;;;;;;20.00;67.10;;;19.34;62.22;96474.09;4187122;33;19951;-85
2022/07/12 02:45:57;;;;;;;;;;;20.00;67.00;;;19.33;62.43;96476.09;4208889;33;20036;-84
2022/07/12 02:48:27;;;;;;;;;;;20.00;67.00;;;19.32;62.34;96471.66;4215655;33;19901;-84
2022/07/12 02:50:56;;;;;;;;;;;20.00;66.90;;;19.32;62.32;96471.66;4238994;33;19909;-84
2022/07/12 02:53:25;;;;;;;;;;;20.00;67.10;;;19.32;62.36;96469.69;4238423;33;19902;-84
2022/07/12 02:55:53;;;;;;;;;;;20.00;67.20;;;19.31;62.52;96473.59;4238611;33;20250;-84
2022/07/12 02:58:22;;;;;;;;;;;20.00;67.00;;;19.30;62.61;96474.75;4238732;33;19909;-84
2022/07/12 03:00:51;;;;;;;;;;;20.00;67.20;;;19.30;62.55;96474.75;4214893;33;20102;-85
2022/07/12 03:03:20;;;;;;;;;;;20.00;67.10;;;19.30;62.10;96477.53;4238101;33;19909;-84
2022/07/12 03:05:50;;;;;;;;;;;20.00;67.00;;;19.28;62.38;96477.06;4238861;33;19902;-84
2022/07/12 03:08:19;;;;;;;;;;;19.90;67.10;;;19.29;61.96;96478.69;4238806;33;20025;-85
2022/07/12 03:10:48;;;;;;;;;;;20.00;67.00;;;19.29;62.22;96480.63;4215424;33;19901;-84
2022/07/12 03:13:17;;;;;;;;;;;19.90;67.00;;;19.28;62.11;96477.06;4262780;33;19902;-84
2022/07/12 03:15:46;;;;;;;;;;;20.00;67.00;;;19.28;62.12;96477.06;4215114;33;19902;-84
2022/07/12 03:18:15;;;;;;;;;;;19.90;66.90;;;19.27;62.07;96475.41;4262528;33;19960;-85
2022/07/12 03:20:44;;;;;;;;;;;19.90;67.00;;;19.27;62.15;96475.41;4263507;33;20217;-84
2022/07/12 03:23:14;;;;;;;;;;;19.90;67.10;;;19.27;62.12;96478.19;4238003;33;20018;-84
2022/07/12 03:25:43;;;;;;;;;;;19.90;67.00;;;19.28;62.24;96488.16;4238547;33;20145;-84
2022/07/12 03:28:11;;;;;;;;;;;19.90;66.90;;;19.28;62.11;96482.59;4238688;33;19918;-84
2022/07/12 03:30:40;;;;;;;;;;;20.00;67.00;;;19.28;62.29;96482.59;4263312;33;20155;-83
2022/07/12 03:33:09;;;;;;;;;;;19.90;66.90;;;19.29;62.23;96487.00;4214326;33;19909;-83
2022/07/12 03:35:37;;;;;;;;;;;19.90;66.80;;;19.28;62.34;96482.59;4214964;33;19901;-84
2022/07/12 03:38:06;;;;;;;;;;;19.90;67.00;;;19.28;62.03;96479.81;4214445;33;19909;-83
2022/07/12 03:40:36;;;;;;;;;;;19.90;66.90;;;19.28;62.04;96477.06;4214756;33;20391;-84
2022/07/12 03:43:05;;;;;;;;;;;19.90;67.00;;;19.28;62.06;96476.22;4237954;33;20346;-83
2022/07/12 03:45:34;;;;;;;;;;;20.00;66.90;;;19.27;61.87;96475.41;4238349;33;19925;-83
2022/07/12 03:48:03;;;;;;;;;;;20.00;66.80;;;19.27;62.17;96478.19;4215019;33;19901;-83
2022/07/12 03:50:32;;;;;;;;;;;19.90;66.70;;;19.28;62.22;96482.59;4238410;33;20237;-84
2022/07/12 03:53:00;;;;;;;;;;;20.00;66.90;;;19.28;62.37;96485.38;4237803;33;20335;-84
2022/07/12 03:55:29;;;;;;;;;;;20.00;66.90;;;19.29;62.03;96487.00;4238588;33;20000;-82
2022/07/12 03:57:59;;;;;;;;;;;20.00;66.70;;;19.29;61.58;96498.13;4238608;33;20351;-83
2022/07/12 04:00:28;;;;;;;;;;;20.00;66.60;;;19.31;62.03;96492.25;4214838;33;19917;-83
2022/07/12 04:02:56;;;;;;;;;;;20.00;66.50;;;19.32;61.39;96500.22;4262678;33;19925;-84
2022/07/12 04:05:27;;;;;;;;;;;20.00;66.50;;;19.32;61.39;96500.22;4238025;33;23301;-83
2022/07/12 04:07:56;;;;;;;;;;;20.00;66.30;;;19.34;61.74;96510.19;4238196;33;20133;-84
2022/07/12 04:10:25;;;;;;;;;;;20.00;66.20;;;19.35;61.38;96503.50;4214776;33;19902;-84
2022/07/12 04:12:53;;;;;;;;;;;20.00;66.30;;;19.36;61.48;96513.47;4262598;33;20218;-85
2022/07/12 04:15:23;;;;;;;;;;;20.00;65.90;;;19.38;61.21;96513.97;4238317;33;20086;-85
2022/07/12 04:17:52;;;;;;;;;;;20.10;66.20;;;19.39;61.59;96504.53;4238060;33;20068;-85
2022/07/12 04:20:21;;;;;;;;;;;20.10;66.20;;;19.41;61.32;96505.03;4238271;33;19909;-84
2022/07/12 04:22:49;;;;;;;;;;;20.10;66.00;;;19.41;61.67;96502.25;4214243;33;20288;-85
2022/07/12 04:25:18;;;;;;;;;;;20.10;65.90;;;19.43;61.33;96511.03;4214385;33;20146;-84
2022/07/12 04:27:47;;;;;;;;;;;20.10;65.90;;;19.44;60.83;96510.75;4238038;33;20130;-84
2022/07/12 04:30:16;;;;;;;;;;;20.10;65.50;;;19.47;60.70;96514.81;4214586;33;20124;-84
2022/07/12 04:32:46;;;;;;;;;;;20.10;65.50;;;19.47;60.67;96510.09;4213641;33;19909;-85
2022/07/12 04:35:14;;;;;;;;;;;20.20;65.10;;;19.50;61.05;96516.97;4237775;33;19905;-84
2022/07/12 04:37:43;;;;;;;;;;;20.20;65.40;;;19.51;60.52;96520.56;4262555;33;20046;-84
2022/07/12 04:40:13;;;;;;;;;;;20.20;65.20;;;19.53;60.42;96524.66;4214287;33;20128;-84
2022/07/12 04:42:49;;;;;;;;;;;20.20;64.90;;;19.54;60.83;96517.97;4261070;33;20162;-84
2022/07/12 04:45:18;;;;;;;;;;;20.20;65.10;;;19.56;60.50;96517.63;4237697;33;19902;-84
2022/07/12 04:47:48;;;;;;;;;;;20.20;65.10;;;19.57;60.63;96510.94;4237838;33;20121;-84
2022/07/12 04:50:17;;;;;;;;;;;20.30;65.20;;;19.58;60.72;96524.50;4213405;33;19905;-84
2022/07/12 04:52:46;;;;;;;;;;;20.30;65.20;;;19.60;60.77;96522.22;4237140;33;19902;-83
2022/07/12 04:55:15;;;;;;;;;;;20.30;65.30;;;19.60;61.09;96516.66;4262270;33;19905;-84
2022/07/12 04:57:43;;;;;;;;;;;20.30;65.70;;;19.62;61.34;96522.72;4237694;33;19902;-84
2022/07/12 05:00:13;;;;;;;;;;;20.30;65.90;;;19.65;61.29;96517.69;4214307;33;20142;-84
2022/07/12 05:02:42;;;;;;;;;;;20.30;66.00;;;19.65;61.45;96517.69;4213542;33;20161;-84
2022/07/12 05:05:14;;;;;;;;;;;20.30;66.10;;;19.68;61.22;96523.41;4262106;33;19908;-84
2022/07/12 05:08:02;;;;;;;;;;;20.40;65.80;;;19.70;61.68;96518.34;4214060;33;19937;-84
2022/07/12 05:10:31;;;;;;;;;;;20.40;66.20;;;19.70;61.80;96525.84;4237473;33;19902;-84
2022/07/12 05:13:42;;;;;;;;;;;20.40;66.40;;;19.73;61.79;96522.44;4213486;33;19914;-84
2022/07/12 05:16:36;;;;;;;;;;;20.40;66.20;;;19.74;61.69;96526.84;4237477;33;19924;-84
2022/07/12 05:19:05;;;;;;;;;;;20.40;66.20;;;19.75;61.67;96523.72;4186080;33;19902;-84
2022/07/12 05:21:35;;;;;;;;;;;20.40;67.00;;;19.77;61.77;96521.44;4185592;33;20119;-84
2022/07/12 05:24:04;;;;;;;;;;;20.50;66.30;;;19.78;61.58;96516.72;4208332;33;20196;-84
2022/07/12 05:26:33;;;;;;;;;;;20.50;66.30;;;19.78;61.40;96525.06;4209078;33;20095;-84
2022/07/12 05:29:02;;;;;;;;;;;20.50;66.10;;;19.76;61.14;96519.00;4236124;33;19909;-84
2022/07/12 05:31:30;;;;;;;;;;;20.50;65.90;;;19.77;61.46;96523.44;4213403;33;19901;-83
2022/07/12 05:33:59;;;;;;;;;;;20.50;66.10;;;19.78;61.44;96525.06;4237323;33;19902;-84
2022/07/12 05:36:28;;;;;;;;;;;20.50;65.90;;;19.77;61.13;96515.91;4237390;33;19902;-84
2022/07/12 05:38:58;;;;;;;;;;;20.50;65.90;;;19.77;61.08;96527.00;4213809;33;19902;-84
2022/07/12 05:41:27;;;;;;;;;;;20.40;65.80;;;19.79;61.00;96518.38;4261433;33;20169;-84
2022/07/12 05:43:55;;;;;;;;;;;20.50;65.90;;;19.81;61.27;96526.38;4213748;33;19902;-84
2022/07/12 05:50:32;;;;;;;;;;;20.50;65.80;;;19.82;61.28;96516.91;4208564;33;19898;-84
2022/07/12 05:56:41;;;;;;;;;;;20.50;66.00;;;19.86;61.17;96524.28;4237853;33;19903;-84
2022/07/12 05:59:10;;;;;;;;;;;20.60;66.20;;;19.88;61.48;96521.22;4208687;33;19903;-84
2022/07/12 06:01:38;;;;;;;;;;;20.60;66.10;;;19.90;61.56;96516.13;4234492;33;19917;-84
2022/07/12 06:04:07;;;;;;;;;;;20.60;66.20;;;19.92;61.46;96520.22;4211200;33;20221;-84
2022/07/12 06:06:36;;;;;;;;;;;20.60;66.20;;;19.96;61.30;96522.34;4211155;33;19909;-84
2022/07/12 06:09:04;;;;;;;;;;;20.60;66.00;;;19.99;61.24;96519.75;4211199;33;19910;-84
2022/07/12 06:11:33;;;;;;;;;;;20.60;66.00;;;20.02;61.37;96526.63;4210573;33;19946;-84
2022/07/12 06:14:04;;;;;;;;;;;20.70;66.10;;;20.03;61.39;96515.16;4210990;33;19902;-84
2022/07/12 06:16:32;;;;;;;;;;;20.70;66.00;;;20.05;61.38;96520.41;4210897;33;20129;-84
2022/07/12 06:19:01;;;;;;;;;;;20.70;66.00;;;20.08;61.32;96520.59;4187980;33;19942;-84
2022/07/12 06:21:30;;;;;;;;;;;20.70;66.00;;;20.10;61.23;96525.81;4210445;33;19909;-84
2022/07/12 06:23:59;;;;;;;;;;;20.80;65.90;;;20.11;61.07;96533.00;4210829;33;19906;-84
2022/07/12 06:26:28;;;;;;;;;;;20.80;65.90;;;20.12;61.27;96526.31;4235352;33;20084;-84
2022/07/12 06:28:57;;;;;;;;;;;20.80;65.80;;;20.13;61.01;96527.13;4210868;33;19910;-84
2022/07/12 06:31:27;;;;;;;;;;;20.80;65.80;;;20.12;61.13;96531.84;4187507;33;19902;-84
2022/07/12 06:33:56;;;;;;;;;;;20.80;65.90;;;20.13;61.35;96530.72;4235220;33;19971;-85
2022/07/12 06:36:25;;;;;;;;;;;20.80;65.90;;;20.14;61.33;96529.56;4210727;33;19902;-85
2022/07/12 06:38:53;;;;;;;;;;;20.80;65.80;;;20.15;61.06;96527.59;4187640;33;20172;-84
2022/07/12 06:41:22;;;;;;;;;;;20.80;65.70;;;20.15;60.93;96525.66;4187103;33;19910;-84
2022/07/12 06:43:51;;;;;;;;;;;20.80;65.70;;;20.14;60.81;96529.56;4197476;33;19902;-85
2022/07/12 06:46:19;;;;;;;;;;;20.80;65.60;;;20.17;60.82;96531.72;4239037;33;19902;-85
2022/07/12 06:49:01;;;;;;;;;;;20.90;65.70;;;20.20;61.01;96533.03;4263779;33;20058;-85
2022/07/12 06:51:45;;;;;;;;;;;20.90;65.70;;;20.20;61.15;96528.25;4215179;33;19902;-85
2022/07/12 06:54:22;;;;;;;;;;;20.90;65.70;;;20.22;60.87;96530.72;4215135;33;20213;-85
2022/07/12 06:56:59;;;;;;;;;;;20.90;65.70;;;20.23;60.88;96519.28;4215464;33;19909;-85
2022/07/12 06:59:37;;;;;;;;;;;20.90;65.50;;;20.29;60.61;96530.25;4262747;33;20200;-84
2022/07/12 07:02:09;;;;;;;;;;;20.90;65.40;;;20.31;60.84;96533.53;4263364;33;19983;-84
2022/07/12 07:04:47;;;;;;;;;;;20.90;65.50;;;20.33;60.64;96534.03;4215802;33;20336;-85
2022/07/12 07:07:20;;;;;;;;;;;21.00;65.40;;;20.32;60.72;96530.41;4212041;33;19905;-85
2022/07/12 07:10:22;;;;;;;;;;;21.00;65.40;;;20.35;60.53;96528.94;4239149;33;19902;-85
2022/07/12 07:12:54;;;;;;;;;;;21.00;65.30;;;20.38;60.68;96533.84;4237578;33;20121;-85
2022/07/12 07:15:23;;;;;;;;;;;21.00;65.20;;;20.39;60.54;96529.94;4215357;33;19938;-84
2022/07/12 07:17:52;;;;;;;;;;;21.00;65.10;;;20.40;60.89;96531.56;4238751;33;19954;-84
2022/07/12 07:20:22;;;;;;;;;;;21.00;65.20;;;20.39;60.46;96538.25;4238887;33;20124;-84
2022/07/12 07:22:51;;;;;;;;;;;21.00;65.10;;;20.37;60.75;96532.22;4263178;33;19914;-85
2022/07/12 07:25:20;;;;;;;;;;;21.00;65.10;;;20.38;60.64;96533.84;4238530;33;19901;-85
2022/07/12 07:27:48;;;;;;;;;;;21.00;65.20;;;20.37;60.85;96532.22;4238694;33;19902;-85
2022/07/12 07:33:03;;;;;;;;;;;21.00;65.40;;;20.35;60.64;96537.28;4237931;33;19901;-85
2022/07/12 07:35:33;;;;;;;;;;;21.00;65.40;;;20.33;60.81;96542.38;4238361;33;20094;-85
2022/07/12 07:38:02;;;;;;;;;;;21.00;65.50;;;20.31;60.69;96534.34;4263227;33;19977;-85
2022/07/12 07:40:30;;;;;;;;;;;21.00;65.50;;;20.34;60.84;96532.84;4263116;33;20306;-84
2022/07/12 07:42:59;;;;;;;;;;;21.00;65.60;;;20.34;61.30;96533.69;4262692;33;20383;-85
2022/07/12 07:45:28;;;;;;;;;;;21.00;65.40;;;20.37;60.68;96532.22;4214681;33;20139;-85
2022/07/12 07:47:59;;;;;;;;;;;21.00;65.40;;;20.39;60.88;96530.75;4214837;33;20010;-85
2022/07/12 07:50:28;;;;;;;;;;;21.00;65.40;;;20.40;60.51;96528.78;4210098;33;20136;-85
2022/07/12 07:52:58;;;;;;;;;;;21.00;65.30;;;20.43;60.70;96530.91;4186331;33;20256;-85
2022/07/12 07:55:27;;;;;;;;;;;21.10;65.40;;;20.42;60.76;96545.97;4210379;33;20070;-85
2022/07/12 08:00:57;;;;;;;;;;;21.00;65.20;;;20.37;61.00;96537.78;4209392;33;20072;-84
2022/07/12 08:03:26;;;;;;;;;;;21.00;65.50;;;20.39;60.86;96538.25;4185596;33;19902;-84
2022/07/12 08:05:57;;;;;;;;;;;21.00;65.40;;;20.39;60.53;96541.88;4186849;33;20091;-85
2022/07/12 08:08:27;;;;;;;;;;;21.00;65.20;;;20.36;60.90;96530.56;4234406;33;20010;-84
2022/07/12 08:10:56;;;;;;;;;;;21.00;65.40;;;20.35;61.05;96531.72;4209899;33;20119;-84
2022/07/12 08:13:25;;;;;;;;;;;21.00;65.50;;;20.33;60.82;96531.25;4209234;33;19909;-84
2022/07/12 08:15:53;;;;;;;;;;;21.00;66.30;;;20.32;60.73;96533.19;4209871;33;20318;-85
2022/07/12 08:18:22;;;;;;;;;;;21.00;65.40;;;20.34;61.12;96538.41;4210040;33;20007;-84
2022/07/12 08:20:51;;;;;;;;;;;21.00;65.50;;;20.36;60.70;96536.13;4209664;33;20139;-85
2022/07/12 08:23:19;;;;;;;;;;;21.00;65.40;;;20.38;60.53;96534.69;4209174;33;20328;-85
2022/07/12 08:25:49;;;;;;;;;;;21.00;65.40;;;20.39;61.00;96535.47;4186398;33;20253;-85
2022/07/12 08:28:18;;;;;;;;;;;21.00;65.40;;;20.38;60.83;96544.97;4209870;33;19902;-85
2022/07/12 08:30:47;;;;;;;;;;;21.00;65.40;;;20.39;60.91;96541.03;4209249;33;20129;-85
2022/07/12 08:33:16;;;;;;;;;;;21.10;65.60;;;20.38;60.81;96533.84;4209367;33;20021;-86
2022/07/12 08:40:16;;;;;;;;;;;21.00;65.50;;;20.36;60.73;96536.13;4238880;33;20148;-86
2022/07/12 08:42:47;;;;;;;;;;;21.00;65.40;;;20.38;60.93;96540.25;4209192;33;19974;-84
2022/07/12 08:45:16;;;;;;;;;;;21.00;65.50;;;20.35;60.90;96527.00;4186645;33;20123;-86
2022/07/12 08:47:45;;;;;;;;;;;21.00;65.50;;;20.35;60.87;96534.50;4186583;33;20307;-85
2022/07/12 08:50:18;;;;;;;;;;;21.00;65.60;;;20.33;61.33;96529.28;4209513;33;19903;-85
2022/07/12 08:52:47;;;;;;;;;;;21.00;65.70;;;20.32;61.51;96537.94;4185978;33;20118;-86
2022/07/12 08:55:22;;;;;;;;;;;21.00;65.80;;;20.32;60.75;96524.03;4186518;33;19902;-86
2022/07/12 08:57:53;;;;;;;;;;;21.00;65.60;;;20.32;60.77;96529.59;4209507;33;19902;-85
2022/07/12 09:00:22;;;;;;;;;;;21.00;65.40;;;20.33;61.02;96525.69;4209418;33;20113;-88
2022/07/12 09:02:52;;;;;;;;;;;21.00;65.60;;;20.33;61.07;96531.25;4185804;33;20025;-86
2022/07/12 09:05:22;;;;;;;;;;;21.00;65.60;;;20.34;61.10;96530.06;4186193;33;19903;-87
2022/07/12 09:07:51;;;;;;;;;;;21.00;65.60;;;20.32;60.91;96530.41;4186214;33;19909;-87
2022/07/12 09:10:20;;;;;;;;;;;21.00;66.40;;;20.33;61.10;96534.84;4186181;33;20041;-87
2022/07/12 09:12:48;;;;;;;;;;;21.00;65.50;;;20.33;61.35;96528.47;4185606;33;20213;-86
2022/07/12 09:15:20;;;;;;;;;;;21.00;65.60;;;20.33;61.14;96525.69;4209392;33;20088;-87
2022/07/12 09:17:58;;;;;;;;;;;21.00;65.50;;;20.30;61.20;96531.88;4186499;33;19942;-87
2022/07/12 09:20:27;;;;;;;;;;;21.00;65.60;;;20.29;61.19;96542.19;4186103;33;19928;-86
2022/07/12 09:22:57;;;;;;;;;;;21.00;65.70;;;20.27;60.84;96540.88;4185683;33;20007;-86
2022/07/12 09:25:26;;;;;;;;;;;20.90;65.60;;;20.27;61.14;96538.09;4186073;33;19903;-84
2022/07/12 09:27:56;;;;;;;;;;;20.90;65.70;;;20.26;60.93;96533.69;4209062;33;19909;-86
2022/07/12 09:30:27;;;;;;;;;;;20.90;65.60;;;20.23;60.92;96535.97;4186098;33;19902;-86
2022/07/12 09:36:10;;;;;;;;;;;20.90;65.70;;;20.20;61.26;96536.59;4186879;33;19902;-86
2022/07/12 09:38:39;;;;;;;;;;;20.90;65.80;;;20.19;61.33;96537.78;4187990;33;20257;-85
2022/07/12 09:41:08;;;;;;;;;;;20.90;65.90;;;20.19;61.17;96542.50;4188569;33;20112;-86
2022/07/12 09:43:37;;;;;;;;;;;20.90;65.90;;;20.19;61.10;96540.56;4187836;33;19909;-86
2022/07/12 09:46:07;;;;;;;;;;;20.90;65.80;;;20.16;61.26;96532.84;4188133;33;20139;-85
2022/07/12 09:48:36;;;;;;;;;;;20.90;65.90;;;20.17;61.43;96544.78;4188217;33;19902;-86
2022/07/12 09:51:05;;;;;;;;;;;20.90;66.00;;;20.16;61.01;96543.97;4211253;33;20279;-86
2022/07/12 09:53:40;;;;;;;;;;;20.90;66.00;;;20.16;61.51;96541.19;4187799;33;20125;-86
2022/07/12 09:56:09;;;;;;;;;;;20.80;66.00;;;20.15;61.29;96541.50;4235808;33;20041;-86
2022/07/12 09:58:41;;;;;;;;;;;20.80;65.80;;;20.16;61.31;96537.59;4188265;33;20260;-86
2022/07/12 10:01:11;;;;;;;;;;;20.80;65.80;;;20.16;61.39;96532.03;4188168;33;19993;-86
2022/07/12 10:03:41;;;;;;;;;;;20.80;65.90;;;20.17;61.15;96534.50;4187581;33;19909;-85
2022/07/12 10:06:09;;;;;;;;;;;20.90;66.00;;;20.16;61.38;96530.06;4234554;33;19910;-85
2022/07/12 10:08:38;;;;;;;;;;;20.80;65.90;;;20.16;61.22;96532.84;4188024;33;19902;-86
2022/07/12 10:11:07;;;;;;;;;;;20.80;65.70;;;20.16;61.10;96527.28;4188024;33;19903;-85
2022/07/12 10:13:36;;;;;;;;;;;20.90;65.80;;;20.17;61.25;96539.22;4224573;28;19890;-80
2022/07/12 10:16:06;;;;;;;;;;;20.90;65.80;;;20.17;61.51;96534.50;4211183;33;19909;-80
2022/07/12 10:18:36;;;;;;;;;;;20.90;65.90;;;20.16;61.34;96538.41;4234419;33;19902;-80
2022/07/12 10:21:18;;;;;;;;;;;20.90;66.00;;;20.17;61.22;96528.09;4211236;33;20124;-80
2022/07/12 10:23:47;;;;;;;;;;;20.90;66.00;;;20.17;61.45;96523.38;4181781;33;20328;-80
2022/07/12 10:26:27;;;;;;;;;;;20.90;66.00;;;20.16;61.55;96529.25;4171975;33;19964;-80
2022/07/12 10:29:03;;;;;;;;;;;20.80;65.90;;;20.15;61.43;96525.66;4183203;33;20209;-80
2022/07/12 10:31:35;;;;;;;;;;;20.80;65.90;;;20.14;61.23;96523.22;4182821;33;19922;-80
2022/07/12 10:34:13;;;;;;;;;;;20.80;65.90;;;20.14;61.19;96517.66;4160092;33;19910;-80
2022/07/12 10:37:12;;;;;;;;;;;20.80;65.80;;;20.13;61.44;96516.03;4159743;33;19903;-80
2022/07/12 10:39:41;;;;;;;;;;;20.80;65.80;;;20.11;61.31;96513.53;4130919;34;20340;-80
2022/07/12 10:42:17;;;;;;;;;;;20.80;65.90;;;20.10;61.53;96525.81;4132379;34;19903;-80
2022/07/12 10:44:47;;;;;;;;;;;20.80;66.00;;;20.09;61.31;96513.03;4155325;34;19911;-80
2022/07/12 10:47:18;;;;;;;;;;;20.80;66.00;;;20.08;61.18;96519.75;4179229;34;19994;-80
2022/07/12 10:49:52;;;;;;;;;;;20.70;66.00;;;20.05;61.84;96510.09;4179186;34;20356;-80
2022/07/12 10:52:27;;;;;;;;;;;20.70;66.00;;;20.05;61.51;96510.09;4154908;34;20014;-80
2022/07/12 10:55:18;;;;;;;;;;;20.70;66.10;;;20.06;61.44;96511.75;4132750;34;20112;-80
2022/07/12 10:57:51;;;;;;;;;;;20.70;66.20;;;20.06;61.17;96511.75;4132498;34;19993;-81
2022/07/12 11:00:22;;;;;;;;;;;20.70;66.00;;;20.07;61.27;96510.59;4155215;34;19903;-81
2022/07/12 11:02:51;;;;;;;;;;;20.80;65.90;;;20.08;61.01;96516.97;4154765;34;20175;-81
2022/07/12 11:05:27;;;;;;;;;;;20.80;65.80;;;20.07;61.13;96518.94;4155197;34;20149;-81
2022/07/12 11:07:56;;;;;;;;;;;20.70;65.90;;;20.07;61.23;96529.25;4161299;33;20099;-81
2022/07/12 11:10:25;;;;;;;;;;;20.70;65.90;;;20.06;61.58;96528.41;4206042;33;19910;-81
2022/07/12 11:12:55;;;;;;;;;;;20.70;66.00;;;20.05;61.41;96523.19;4181945;33;19903;-81
2022/07/12 11:15:25;;;;;;;;;;;20.70;66.00;;;20.05;61.38;96525.97;4205601;33;19910;-81
2022/07/12 11:17:53;;;;;;;;;;;20.70;66.00;;;20.04;61.53;96527.13;4206617;33;20209;-82
2022/07/12 11:20:22;;;;;;;;;;;20.70;66.10;;;20.03;61.26;96520.72;4206697;33;20076;-81
2022/07/12 11:22:52;;;;;;;;;;;20.70;66.00;;;20.03;61.55;96525.47;4181960;33;19903;-81
2022/07/12 11:25:21;;;;;;;;;;;20.70;66.20;;;20.02;61.56;96521.06;4182372;33;20031;-81
2022/07/12 11:27:50;;;;;;;;;;;20.70;66.10;;;20.01;61.44;96519.41;4182452;33;19903;-81
2022/07/12 11:30:18;;;;;;;;;;;20.70;66.10;;;20.01;61.24;96522.19;4182407;33;20050;-81
2022/07/12 11:32:48;;;;;;;;;;;20.70;66.00;;;20.01;61.42;96530.53;4181724;33;20137;-81
2022/07/12 11:35:21;;;;;;;;;;;20.70;66.00;;;20.00;61.34;96521.41;4132309;34;19911;-81
2022/07/12 11:37:55;;;;;;;;;;;20.70;66.10;;;20.01;61.49;96533.31;4154859;34;20318;-81
2022/07/12 11:40:28;;;;;;;;;;;20.70;66.20;;;20.00;61.58;96520.56;4132406;34;19960;-81
2022/07/12 11:42:58;;;;;;;;;;;20.70;66.40;;;20.00;61.57;96517.78;4131891;34;19911;-81
2022/07/12 11:45:28;;;;;;;;;;;20.70;66.20;;;20.01;61.58;96513.88;4132185;34;20130;-81
2022/07/12 11:47:58;;;;;;;;;;;20.70;66.30;;;20.00;61.30;96515.00;4132157;34;20097;-81
2022/07/12 11:50:27;;;;;;;;;;;20.70;66.20;;;20.01;61.42;96519.41;4132421;34;20025;-81
2022/07/12 11:52:57;;;;;;;;;;;20.70;66.20;;;20.02;61.78;96521.06;4154580;34;20241;-81